Terminal Aerodrome Forecast
Issued by NWS

Home | Current Version | Previous Version | Text Only | Print | Product List | Glossary On
Versions: 1 2 3 4 5 6 7 8 9 10 11 12
000
FTUS44 KEPZ 271138
TAFLRU
TAF
KLRU 271138Z 2712/2812 25010KT P6SM BKN250
     FM271600 27018G28KT P6SM BKN200
     FM271900 27030G40KT 6SM BLDU BKN200
      TEMPO 2720/2724 28032G45KT 3SM BLDU
     FM280300 27020G30KT P6SM BKN200=

USA.gov is the U.S. government's official web portal to all federal, state and local government web resources and services.